Time;durP1;ratioP1;P1;durP2;ratioP2;P2;SDS_P1;SDS_P2;PMS_P1;PMS_P2;Temp;Humidity;BMP_temperature;BMP_pressure;BME280_temperature;BME280_humidity;BME280_pressure;Samples;Min_cycle;Max_cycle;Signal;HPM_P1;HPM_P2
2023/01/21 05:30:43;;;;;;;6.32;4.47;;;2.70;83.80;;;;;;5744223;23;20054;-89
2023/01/21 05:33:08;;;;;;;7.57;4.00;;;2.70;83.80;;;;;;4966149;28;20102;-88
2023/01/21 05:35:43;;;;;;;12.38;5.10;;;2.70;83.80;;;;;;4944474;29;20058;-89
2023/01/21 05:38:09;;;;;;;5.18;4.68;;;2.70;83.80;;;;;;4960254;29;20498;-89
2023/01/21 05:40:34;;;;;;;5.65;4.55;;;2.80;83.90;;;;;;4976014;28;20119;-88
2023/01/21 05:43:00;;;;;;;7.88;5.40;;;2.70;83.80;;;;;;4981929;28;20042;-90
2023/01/21 05:45:25;;;;;;;5.45;4.45;;;2.70;83.80;;;;;;4961513;28;20034;-89
2023/01/21 05:47:51;;;;;;;6.10;4.53;;;2.80;83.70;;;;;;4978875;28;20647;-89
2023/01/21 05:50:17;;;;;;;5.70;4.53;;;2.70;83.80;;;;;;4959099;29;20015;-90
2023/01/21 05:52:45;;;;;;;6.05;4.60;;;2.70;83.80;;;;;;4961666;29;20027;-88
2023/01/21 05:55:10;;;;;;;7.25;4.97;;;2.70;83.80;;;;;;4943135;29;20497;-90
2023/01/21 05:57:36;;;;;;;4.57;3.50;;;2.80;83.80;;;;;;4959262;28;20063;-90
2023/01/21 06:00:02;;;;;;;6.57;4.15;;;2.70;83.80;;;;;;4962942;28;20031;-90
2023/01/21 06:02:28;;;;;;;6.90;4.28;;;2.70;83.80;;;;;;4963168;28;20389;-91
2023/01/21 06:04:54;;;;;;;5.00;3.97;;;2.80;83.80;;;;;;4962878;28;20086;-89
2023/01/21 06:07:19;;;;;;;11.00;5.35;;;2.70;83.80;;;;;;4960142;29;20096;-89
2023/01/21 06:09:45;;;;;;;7.30;4.28;;;2.80;83.90;;;;;;4961765;28;20090;-88
2023/01/21 06:12:10;;;;;;;4.35;3.58;;;2.70;83.80;;;;;;4944380;29;20034;-88
2023/01/21 06:14:36;;;;;;;9.88;4.47;;;2.70;83.80;;;;;;4960931;28;20556;-90
2023/01/21 06:17:02;;;;;;;7.20;5.07;;;2.70;83.70;;;;;;4945915;29;20478;-90
2023/01/21 06:19:27;;;;;;;5.07;3.83;;;2.70;83.70;;;;;;4960056;29;20034;-91
2023/01/21 06:21:53;;;;;;;5.35;3.40;;;2.70;83.70;;;;;;4975648;28;20035;-87
2023/01/21 06:24:18;;;;;;;9.05;5.25;;;2.70;83.60;;;;;;4978838;28;20082;-90
2023/01/21 06:26:44;;;;;;;8.55;4.72;;;2.70;83.70;;;;;;4969254;28;20077;-89
2023/01/21 06:29:10;;;;;;;7.85;4.60;;;2.70;83.70;;;;;;4943418;29;20067;-88
2023/01/21 06:31:35;;;;;;;6.05;4.53;;;2.70;83.70;;;;;;4959401;29;20083;-89
2023/01/21 06:34:01;;;;;;;6.93;3.92;;;2.70;83.70;;;;;;4977393;28;20027;-88
2023/01/21 06:36:26;;;;;;;5.78;3.88;;;2.70;83.70;;;;;;4974796;28;20027;-88
2023/01/21 06:38:52;;;;;;;3.95;3.40;;;2.70;83.60;;;;;;4961980;29;20028;-89
2023/01/21 06:41:18;;;;;;;4.43;3.53;;;2.70;83.60;;;;;;4941736;28;20370;-88
2023/01/21 06:43:45;;;;;;;6.60;3.67;;;2.70;83.60;;;;;;4971508;28;20508;-88
2023/01/21 06:46:11;;;;;;;5.20;4.18;;;2.70;83.60;;;;;;4984292;28;20058;-89
2023/01/21 06:48:37;;;;;;;6.35;4.00;;;2.70;83.50;;;;;;4977786;28;20027;-86
2023/01/21 06:51:02;;;;;;;7.80;3.78;;;2.70;83.50;;;;;;4964588;29;20114;-81
2023/01/21 06:53:28;;;;;;;4.80;4.00;;;2.70;83.30;;;;;;4962102;28;20102;-86
2023/01/21 06:55:54;;;;;;;7.05;3.55;;;2.70;83.50;;;;;;4964280;28;20023;-82
2023/01/21 06:58:19;;;;;;;7.13;4.18;;;2.70;83.50;;;;;;4975983;28;20106;-78
2023/01/21 07:01:08;;;;;;;8.63;3.45;;;2.70;83.20;;;;;;4961077;29;20059;-85
2023/01/21 07:03:33;;;;;;;6.38;3.30;;;2.70;83.30;;;;;;4951382;28;20548;-81
2023/01/21 07:05:59;;;;;;;5.13;3.53;;;2.60;83.10;;;;;;4963040;28;20035;-81
2023/01/21 07:08:25;;;;;;;6.80;3.75;;;2.60;82.90;;;;;;4963268;28;20038;-84
2023/01/21 07:10:50;;;;;;;5.68;3.30;;;2.50;82.90;;;;;;4950076;28;20030;-85
2023/01/21 07:13:16;;;;;;;3.92;3.33;;;2.50;82.90;;;;;;4962736;28;20055;-79
2023/01/21 07:15:42;;;;;;;6.97;3.53;;;2.50;82.80;;;;;;4962862;28;20027;-80
2023/01/21 07:18:07;;;;;;;4.63;3.10;;;2.50;83.20;;;;;;4965476;28;20035;-77
2023/01/21 07:20:33;;;;;;;3.55;3.10;;;2.50;82.80;;;;;;4967903;28;20101;-90
2023/01/21 07:22:59;;;;;;;6.80;3.65;;;2.40;82.80;;;;;;4952217;28;20644;-78
2023/01/21 07:25:24;;;;;;;6.22;3.38;;;2.40;82.80;;;;;;4952053;28;20043;-78
2023/01/21 07:27:53;;;;;;;4.63;3.70;;;2.40;82.80;;;;;;4965681;28;20031;-86
2023/01/21 07:30:19;;;;;;;4.97;3.15;;;2.30;82.60;;;;;;4942576;28;20099;-79
2023/01/21 07:32:46;;;;;;;4.88;3.50;;;2.30;82.80;;;;;;4970755;28;20081;-78
2023/01/21 07:35:14;;;;;;;4.50;4.00;;;2.30;82.70;;;;;;4967788;28;20035;-79
2023/01/21 07:37:40;;;;;;;4.88;4.00;;;2.30;82.80;;;;;;4967701;28;20035;-75
2023/01/21 07:40:06;;;;;;;5.65;3.45;;;2.30;82.50;;;;;;4960008;28;20684;-80
2023/01/21 07:42:32;;;;;;;7.15;3.72;;;2.20;82.70;;;;;;4972802;28;20492;-79
2023/01/21 07:45:01;;;;;;;5.00;4.50;;;2.20;82.80;;;;;;4944542;28;20121;-78
2023/01/21 07:47:26;;;;;;;6.53;4.15;;;2.20;82.80;;;;;;4964555;28;20505;-77
2023/01/21 07:49:52;;;;;;;5.80;4.15;;;2.20;82.80;;;;;;4967703;28;20169;-78
2023/01/21 07:52:18;;;;;;;5.78;3.67;;;2.20;82.70;;;;;;4942904;29;20134;-78
2023/01/21 07:54:43;;;;;;;6.53;3.83;;;2.20;82.80;;;;;;4961093;28;20027;-80
2023/01/21 07:57:09;;;;;;;5.65;4.10;;;2.20;82.70;;;;;;4966192;28;20054;-79
2023/01/21 07:59:35;;;;;;;6.57;4.82;;;2.20;82.80;;;;;;4942160;28;20082;-82
2023/01/21 08:02:00;;;;;;;6.47;5.07;;;2.20;82.90;;;;;;4942271;29;20533;-78
2023/01/21 08:04:26;;;;;;;5.07;4.32;;;2.20;82.70;;;;;;4965103;28;20134;-85
2023/01/21 08:06:55;;;;;;;6.45;3.88;;;2.20;82.60;;;;;;4941648;29;20035;-85
2023/01/21 08:09:25;;;;;;;5.72;4.22;;;2.20;82.60;;;;;;4947902;28;20030;-89
2023/01/21 08:11:51;;;;;;;6.93;3.83;;;2.20;82.50;;;;;;4947193;29;20122;-86
2023/01/21 08:14:16;;;;;;;6.47;4.05;;;2.20;82.70;;;;;;4944718;28;20426;-85
2023/01/21 08:16:42;;;;;;;6.60;4.10;;;2.20;82.70;;;;;;4967245;28;20023;-87
2023/01/21 08:19:08;;;;;;;4.82;4.38;;;2.30;82.50;;;;;;4960703;28;20043;-82
2023/01/21 08:21:33;;;;;;;4.45;4.03;;;2.30;82.60;;;;;;4952959;28;20038;-85
2023/01/21 08:23:59;;;;;;;3.97;3.47;;;2.30;82.50;;;;;;4972411;28;20030;-88
2023/01/21 08:26:25;;;;;;;8.00;4.38;;;2.30;82.40;;;;;;4941474;29;20086;-89
2023/01/21 08:28:53;;;;;;;7.30;3.83;;;2.30;82.40;;;;;;4940630;28;20133;-85
2023/01/21 08:31:19;;;;;;;9.13;4.25;;;2.30;82.40;;;;;;4959185;28;20106;-84
2023/01/21 08:33:45;;;;;;;5.13;4.72;;;2.30;82.40;;;;;;4967064;28;20031;-84
2023/01/21 08:36:10;;;;;;;4.82;3.63;;;2.40;82.40;;;;;;4960717;28;20027;-84
2023/01/21 08:38:39;;;;;;;6.07;4.63;;;2.40;82.20;;;;;;4961003;28;20416;-83
2023/01/21 08:41:05;;;;;;;4.78;4.05;;;2.40;82.20;;;;;;4964145;28;20393;-82
2023/01/21 08:43:31;;;;;;;5.22;4.72;;;2.40;82.20;;;;;;4958724;29;20035;-86
2023/01/21 08:45:58;;;;;;;6.28;5.32;;;2.50;82.10;;;;;;4960018;28;20086;-84
2023/01/21 08:48:23;;;;;;;5.45;4.00;;;2.50;82.50;;;;;;4962423;28;20466;-83
2023/01/21 08:50:49;;;;;;;8.65;4.53;;;2.60;82.50;;;;;;4960570;28;20128;-83
2023/01/21 08:53:15;;;;;;;6.68;4.35;;;2.60;82.70;;;;;;4959120;29;20111;-83
2023/01/21 08:55:40;;;;;;;7.97;4.70;;;2.70;83.10;;;;;;4965575;28;20027;-83
2023/01/21 08:58:06;;;;;;;5.30;3.83;;;2.80;83.20;;;;;;4958656;29;20059;-83
2023/01/21 09:00:31;;;;;;;11.20;4.65;;;2.90;83.20;;;;;;4961473;28;20023;-83
2023/01/21 09:02:58;;;;;;;6.40;4.68;;;2.90;83.30;;;;;;4958795;28;20031;-83
2023/01/21 09:05:24;;;;;;;9.80;4.20;;;3.00;83.40;;;;;;4958386;28;20109;-83
2023/01/21 09:07:49;;;;;;;8.55;4.35;;;3.00;83.50;;;;;;4942278;28;20151;-83
2023/01/21 09:10:59;;;;;;;7.25;3.95;;;3.10;83.40;;;;;;4970785;28;20494;-83
2023/01/21 09:13:06;;;;;;;6.22;3.95;;;3.20;83.20;;;;;;4958081;28;20059;-83
2023/01/21 09:15:36;;;;;;;;;;;3.20;83.30;;;;;;4958888;28;20024;-84
2023/01/21 09:18:02;;;;;;;8.23;6.00;;;3.30;83.40;;;;;;4958590;29;19914;-83
2023/01/21 09:20:27;;;;;;;9.13;5.55;;;3.30;83.70;;;;;;4958051;28;20653;-83
2023/01/21 09:22:53;;;;;;;14.30;7.25;;;3.40;83.40;;;;;;4957656;29;20027;-84
2023/01/21 09:25:19;;;;;;;7.13;4.72;;;3.50;83.70;;;;;;4958456;28;20046;-84
2023/01/21 09:27:44;;;;;;;10.77;8.02;;;3.70;83.20;;;;;;4941146;29;20032;-83
2023/01/21 09:30:10;;;;;;;11.32;8.23;;;3.90;82.90;;;;;;4957842;28;20035;-83
2023/01/21 09:32:36;;;;;;;14.07;6.53;;;4.10;82.50;;;;;;4958101;29;20051;-83
2023/01/21 09:35:01;;;;;;;9.82;6.22;;;4.30;82.40;;;;;;4958081;28;20031;-84
2023/01/21 09:37:28;;;;;;;10.48;9.43;;;4.60;82.10;;;;;;4958357;29;20058;-84
2023/01/21 09:39:53;;;;;;;8.63;7.68;;;5.10;81.10;;;;;;4969520;28;20098;-84
2023/01/21 09:42:24;;;;;;;12.25;7.80;;;5.70;79.90;;;;;;4958172;29;20031;-84
2023/01/21 09:44:52;;;;;;;11.32;8.07;;;6.40;78.70;;;;;;4958219;29;20106;-83
2023/01/21 09:47:32;;;;;;;7.78;7.10;;;7.10;76.90;;;;;;4940952;29;20042;-83
2023/01/21 09:50:06;;;;;;;;;;;7.70;75.00;;;;;;4941109;28;20127;-83
2023/01/21 09:52:48;;;;;;;10.73;9.45;;;8.00;74.30;;;;;;4958007;29;19997;-83
2023/01/21 09:55:36;;;;;;;9.82;9.02;;;8.10;72.60;;;;;;4952360;28;20033;-83
2023/01/21 09:58:39;;;;;;;13.73;9.15;;;8.20;73.50;;;;;;4962031;28;20027;-83
2023/01/21 10:01:09;;;;;;;9.77;5.70;;;8.10;73.30;;;;;;4970128;28;20023;-83
2023/01/21 10:03:49;;;;;;;;;;;7.80;73.20;;;;;;4958185;28;20062;-83
2023/01/21 10:06:39;;;;;;;8.75;6.47;;;7.50;74.40;;;;;;4957873;28;19946;-85
2023/01/21 10:09:23;;;;;;;15.43;6.47;;;6.90;75.20;;;;;;4964742;28;20058;-85
2023/01/21 10:12:08;;;;;;;8.93;6.55;;;6.40;76.50;;;;;;4940306;29;20743;-83
2023/01/21 10:15:01;;;;;;;14.10;7.13;;;6.10;77.50;;;;;;4940560;29;20027;-85
2023/01/21 10:17:50;;;;;;;16.83;7.50;;;5.80;78.30;;;;;;4956609;28;20066;-85
2023/01/21 10:20:49;;;;;;;11.18;7.13;;;5.60;78.70;;;;;;4957398;28;20031;-84
2023/01/21 10:23:21;;;;;;;12.25;6.55;;;5.50;79.10;;;;;;4889253;29;20051;-86
2023/01/21 10:25:48;;;;;;;11.13;6.75;;;5.50;79.60;;;;;;4957160;28;20034;-85
2023/01/21 10:28:27;;;;;;;14.80;6.47;;;5.40;79.30;;;;;;4940296;29;20670;-84
2023/01/21 10:30:56;;;;;;;12.13;6.43;;;5.40;79.50;;;;;;4939595;29;20039;-85
2023/01/21 10:33:27;;;;;;;13.02;7.30;;;5.40;79.40;;;;;;4957471;28;20179;-85
2023/01/21 10:36:05;;;;;;;15.82;7.13;;;5.40;79.60;;;;;;4957386;28;20562;-85
2023/01/21 10:38:50;;;;;;;14.20;6.88;;;5.40;79.50;;;;;;4948882;28;20050;-85
2023/01/21 10:41:54;;;;;;;15.55;7.22;;;5.40;78.70;;;;;;4957208;28;20052;-85
2023/01/21 10:44:51;;;;;;;10.05;5.90;;;5.40;78.80;;;;;;4956956;28;20043;-85
2023/01/21 10:47:50;;;;;;;13.60;7.50;;;5.50;78.60;;;;;;4955292;28;20034;-84
2023/01/21 10:50:39;;;;;;;9.65;6.50;;;5.50;78.20;;;;;;4959043;28;20101;-84
2023/01/21 10:53:30;;;;;;;14.43;8.45;;;5.50;78.30;;;;;;4954701;28;20059;-85
2023/01/21 10:56:06;;;;;;;16.48;8.07;;;5.50;78.00;;;;;;4947622;29;20065;-85
2023/01/21 10:58:51;;;;;;;10.18;6.57;;;5.50;77.80;;;;;;4956819;28;20543;-85
2023/01/21 11:01:34;;;;;;;13.07;6.93;;;5.50;77.70;;;;;;4953451;28;20370;-87
2023/01/21 11:04:08;;;;;;;9.65;6.13;;;5.60;77.90;;;;;;4961308;28;20070;-85
2023/01/21 11:06:35;;;;;;;8.35;5.82;;;5.60;76.50;;;;;;4957433;28;20086;-83
2023/01/21 11:09:03;;;;;;;11.93;6.00;;;5.70;76.30;;;;;;4966161;28;20031;-89
2023/01/21 11:11:33;;;;;;;12.80;7.28;;;5.60;75.50;;;;;;4968019;28;20508;-89
2023/01/21 11:13:59;;;;;;;8.93;6.30;;;5.70;75.60;;;;;;4959598;28;20038;-91
2023/01/21 11:16:50;;;;;;;11.75;6.32;;;5.70;75.30;;;;;;4954333;28;20263;-86
2023/01/21 11:19:29;;;;;;;11.70;6.03;;;5.70;74.90;;;;;;4965373;28;20028;-88
2023/01/21 11:22:15;;;;;;;9.73;5.57;;;5.70;73.90;;;;;;4956476;28;20035;-84
2023/01/21 11:24:46;;;;;;;9.52;5.70;;;5.80;74.40;;;;;;4949339;28;20035;-84
2023/01/21 11:27:32;;;;;;;9.25;6.47;;;5.70;73.60;;;;;;4970905;28;20035;-86
2023/01/21 11:29:58;;;;;;;8.95;5.30;;;5.80;72.90;;;;;;4979155;28;20035;-85
2023/01/21 11:32:26;;;;;;;9.20;6.15;;;5.80;72.90;;;;;;4978623;28;20054;-87
2023/01/21 11:35:08;;;;;;;12.48;6.50;;;5.80;72.50;;;;;;4962096;28;20050;-86
2023/01/21 11:37:36;;;;;;;8.70;5.45;;;5.90;72.40;;;;;;4956655;28;20030;-85
2023/01/21 11:40:13;;;;;;;14.25;6.72;;;5.90;71.90;;;;;;4960246;28;20034;-81
2023/01/21 11:42:47;;;;;;;9.68;6.03;;;5.90;71.40;;;;;;4970325;28;20098;-89
2023/01/21 11:45:37;;;;;;;7.75;5.75;;;6.00;70.20;;;;;;4943415;28;20030;-90
2023/01/21 11:48:21;;;;;;;8.68;5.70;;;6.00;70.70;;;;;;4956768;29;20039;-86
2023/01/21 11:50:46;;;;;;;9.00;5.05;;;6.00;71.00;;;;;;4944709;29;20027;-86
2023/01/21 11:53:17;;;;;;;11.30;6.53;;;6.00;71.20;;;;;;4960192;29;20457;-88
2023/01/21 11:55:53;;;;;;;9.65;5.95;;;6.00;70.50;;;;;;4960925;28;20027;-84
2023/01/21 11:58:34;;;;;;;12.57;7.50;;;6.10;68.80;;;;;;4963459;28;20558;-87
2023/01/21 12:01:03;;;;;;;12.60;4.82;;;6.10;69.20;;;;;;4968952;28;20046;-84
2023/01/21 12:03:52;;;;;;;12.27;6.13;;;6.00;69.10;;;;;;4960074;28;20027;-83
2023/01/21 12:06:25;;;;;;;8.60;5.80;;;6.00;68.00;;;;;;4960001;28;20119;-88
2023/01/21 12:08:54;;;;;;;10.23;6.07;;;6.10;67.80;;;;;;4959883;29;20090;-85
2023/01/21 12:11:25;;;;;;;10.95;5.65;;;6.10;67.30;;;;;;4959985;28;20122;-80
2023/01/21 12:13:54;;;;;;;9.10;6.15;;;6.10;67.20;;;;;;4959708;28;20023;-89
2023/01/21 12:16:33;;;;;;;9.52;5.93;;;6.10;65.70;;;;;;4959629;28;20063;-88
2023/01/21 12:19:17;;;;;;;8.35;5.60;;;6.20;64.70;;;;;;4959577;28;20043;-78
2023/01/21 12:22:13;;;;;;;10.40;5.95;;;6.20;64.50;;;;;;4942286;29;20031;-82
2023/01/21 12:25:14;;;;;;;7.60;5.07;;;6.20;63.70;;;;;;4959649;29;20027;-81
2023/01/21 12:28:09;;;;;;;9.10;5.68;;;6.20;62.40;;;;;;4957682;29;20040;-84
2023/01/21 12:30:50;;;;;;;8.20;4.63;;;6.20;63.30;;;;;;4941896;29;20074;-82
2023/01/21 12:33:34;;;;;;;10.35;5.65;;;6.20;63.20;;;;;;4958016;28;20557;-84
2023/01/21 12:36:26;;;;;;;11.10;5.57;;;6.20;63.30;;;;;;4963638;28;20041;-84
2023/01/21 12:39:06;;;;;;;8.68;4.88;;;6.30;62.30;;;;;;4969272;28;20054;-84
2023/01/21 12:41:35;;;;;;;9.52;5.15;;;6.30;62.90;;;;;;4949414;28;20033;-84
2023/01/21 12:44:13;;;;;;;10.40;6.28;;;6.30;60.90;;;;;;4968254;28;20085;-84
2023/01/21 12:46:43;;;;;;;9.02;5.63;;;6.30;61.40;;;;;;4966801;28;20165;-84
2023/01/21 12:49:34;;;;;;;7.95;5.05;;;6.30;60.90;;;;;;4969059;28;20030;-86
2023/01/21 12:52:07;;;;;;;8.00;5.20;;;6.30;60.70;;;;;;4967390;28;20038;-85
2023/01/21 12:54:45;;;;;;;11.55;6.38;;;6.30;61.20;;;;;;4964324;28;20498;-84
2023/01/21 12:57:20;;;;;;;8.25;5.35;;;6.40;61.40;;;;;;4965981;28;20033;-84
2023/01/21 13:00:25;;;;;;;7.82;4.57;;;6.40;61.80;;;;;;4948335;29;20034;-84
2023/01/21 13:03:19;;;;;;;8.32;4.95;;;6.50;61.50;;;;;;4956685;28;20047;-78
2023/01/21 13:06:08;;;;;;;9.00;5.07;;;6.60;61.80;;;;;;4941629;29;20039;-79
2023/01/21 13:08:33;;;;;;;10.45;5.72;;;6.60;61.30;;;;;;4957804;29;20486;-83
2023/01/21 13:11:10;;;;;;;7.88;4.95;;;6.60;60.30;;;;;;4941156;29;20273;-83
2023/01/21 13:14:02;;;;;;;9.30;5.00;;;6.60;60.80;;;;;;4958866;28;20031;-87
2023/01/21 13:16:29;;;;;;;9.70;5.28;;;6.70;60.20;;;;;;4941402;28;20039;-82
2023/01/21 13:18:55;;;;;;;9.32;4.30;;;6.70;60.50;;;;;;4976730;28;20023;-85
2023/01/21 13:22:00;;;;;;;6.13;4.20;;;6.70;60.90;;;;;;4969025;28;20053;-87
2023/01/21 13:24:31;;;;;;;8.73;5.60;;;6.70;60.10;;;;;;4957877;29;20043;-89
2023/01/21 13:27:09;;;;;;;13.27;5.63;;;6.70;60.30;;;;;;4941414;29;20039;-89
2023/01/21 13:30:15;;;;;;;13.10;6.90;;;6.70;59.90;;;;;;4942173;29;20035;-89
2023/01/21 13:33:06;;;;;;;10.10;5.35;;;6.70;60.00;;;;;;4977361;28;20042;-89
2023/01/21 13:35:44;;;;;;;;;;;6.70;60.10;;;;;;4944652;28;20019;-89
2023/01/21 13:38:32;;;;;;;10.80;5.50;;;6.70;59.60;;;;;;4943063;28;19911;-89
2023/01/21 13:41:03;;;;;;;7.28;4.72;;;6.80;59.00;;;;;;4947818;29;20089;-90
2023/01/21 13:43:54;;;;;;;8.27;5.30;;;6.70;59.60;;;;;;4959789;29;20138;-89
2023/01/21 13:46:38;;;;;;;;;;;6.80;58.90;;;;;;4943223;28;20027;-90
2023/01/21 13:49:19;;;;;;;7.35;4.93;;;6.70;58.30;;;;;;4945085;28;19945;-89
2023/01/21 13:52:08;;;;;;;8.10;5.18;;;6.70;57.60;;;;;;4945578;29;20478;-85
2023/01/21 13:55:01;;;;;;;7.60;4.43;;;6.80;57.80;;;;;;4941166;28;20087;-89
2023/01/21 13:57:46;;;;;;;7.47;4.97;;;6.80;56.50;;;;;;4955967;28;20042;-88
2023/01/21 14:00:21;;;;;;;8.85;4.15;;;6.80;57.20;;;;;;4953444;28;20117;-88
2023/01/21 14:02:57;;;;;;;9.68;4.45;;;6.80;57.90;;;;;;4966970;28;20027;-89
2023/01/21 14:05:49;;;;;;;8.43;5.10;;;6.80;56.80;;;;;;4957874;28;20031;-88
2023/01/21 14:08:30;;;;;;;10.00;5.40;;;6.80;56.90;;;;;;4904893;29;20556;-89
2023/01/21 14:11:25;;;;;;;7.20;4.65;;;6.80;55.60;;;;;;4964241;28;20082;-89
2023/01/21 14:13:53;;;;;;;7.25;4.35;;;6.70;55.20;;;;;;4931559;28;20114;-88
2023/01/21 14:16:43;;;;;;;7.63;4.28;;;6.80;54.90;;;;;;4942000;29;20024;-89
2023/01/21 14:19:28;;;;;;;;;;;6.70;55.70;;;;;;4962921;28;20039;-89
2023/01/21 14:22:31;;;;;;;6.68;4.18;;;6.80;55.70;;;;;;4951242;28;19965;-89
2023/01/21 14:25:19;;;;;;;7.70;4.63;;;6.70;55.60;;;;;;4941244;28;20039;-89
2023/01/21 14:28:06;;;;;;;8.50;4.50;;;6.80;56.60;;;;;;4947577;28;20031;-89
2023/01/21 14:30:38;;;;;;;7.10;4.03;;;6.80;56.90;;;;;;4965337;28;20399;-89
2023/01/21 14:33:17;;;;;;;6.30;3.97;;;6.80;55.00;;;;;;4946187;28;20075;-90
2023/01/21 14:35:43;;;;;;;9.52;4.80;;;6.80;53.30;;;;;;4949675;28;20019;-89
2023/01/21 14:38:22;;;;;;;9.43;4.25;;;6.70;53.80;;;;;;4949616;28;20042;-89
2023/01/21 14:40:50;;;;;;;8.30;4.63;;;6.70;53.60;;;;;;4949059;28;20022;-90
2023/01/21 14:43:39;;;;;;;6.18;3.78;;;6.70;52.70;;;;;;4944288;28;20043;-90
2023/01/21 14:46:25;;;;;;;10.35;4.30;;;6.70;53.20;;;;;;4944516;28;20039;-90
2023/01/21 14:49:08;;;;;;;8.63;4.30;;;6.70;52.70;;;;;;4967075;28;20031;-90
2023/01/21 14:51:43;;;;;;;7.43;3.95;;;6.70;52.20;;;;;;4945955;29;20397;-90
2023/01/21 14:54:18;;;;;;;6.57;4.00;;;6.70;51.30;;;;;;4950001;29;20020;-90
2023/01/21 14:57:04;;;;;;;12.65;5.00;;;6.70;51.90;;;;;;4946150;28;20051;-89
2023/01/21 14:59:42;;;;;;;7.38;4.50;;;6.70;52.00;;;;;;4948866;29;20042;-90
2023/01/21 15:02:33;;;;;;;4.10;3.00;;;6.70;53.40;;;;;;4946979;28;20118;-89
2023/01/21 15:05:15;;;;;;;4.60;3.58;;;6.70;53.10;;;;;;4951327;28;20401;-90
2023/01/21 15:07:44;;;;;;;6.32;3.85;;;6.70;53.70;;;;;;4966756;28;20038;-90
2023/01/21 15:10:25;;;;;;;7.40;4.32;;;6.70;54.40;;;;;;4952194;28;20042;-89
2023/01/21 15:12:54;;;;;;;7.43;5.13;;;6.70;53.60;;;;;;4966088;28;20027;-89
2023/01/21 15:15:33;;;;;;;6.22;3.95;;;6.70;52.90;;;;;;4969551;28;20023;-89
2023/01/21 15:18:07;;;;;;;7.22;4.90;;;6.70;52.90;;;;;;4952061;28;20027;-90
2023/01/21 15:20:42;;;;;;;6.20;3.83;;;6.60;52.20;;;;;;4951504;28;20090;-89
2023/01/21 15:23:29;;;;;;;5.13;2.97;;;6.60;52.80;;;;;;4950858;28;20053;-90
2023/01/21 15:26:09;;;;;;;6.15;4.05;;;6.60;52.40;;;;;;4953631;28;20057;-89
2023/01/21 15:28:43;;;;;;;5.47;3.40;;;6.60;52.80;;;;;;4956532;28;20039;-89
2023/01/21 15:31:16;;;;;;;8.55;4.70;;;6.60;52.50;;;;;;4951378;28;20061;-90
2023/01/21 15:33:49;;;;;;;4.57;3.17;;;6.60;52.00;;;;;;4961598;28;20529;-89
2023/01/21 15:36:23;;;;;;;5.32;3.83;;;6.50;52.90;;;;;;4943719;28;20036;-90
2023/01/21 15:38:51;;;;;;;8.15;4.18;;;6.50;53.20;;;;;;4960662;29;20034;-89
2023/01/21 15:41:52;;;;;;;6.93;3.92;;;6.50;52.70;;;;;;4946385;28;20051;-89
2023/01/21 15:44:26;;;;;;;7.40;4.55;;;6.50;52.50;;;;;;4926184;28;20051;-88
2023/01/21 15:47:02;;;;;;;7.13;3.47;;;6.40;52.60;;;;;;4967505;28;20027;-86
2023/01/21 15:49:46;;;;;;;8.55;5.15;;;6.40;53.10;;;;;;4946175;28;20516;-88
2023/01/21 15:52:24;;;;;;;5.38;4.35;;;6.40;53.60;;;;;;4952351;28;20042;-90
2023/01/21 15:55:24;;;;;;;4.95;4.45;;;6.40;54.80;;;;;;4953334;28;20030;-89
2023/01/21 15:58:05;;;;;;;7.22;5.50;;;6.30;55.90;;;;;;4913743;28;20035;-87
2023/01/21 16:00:52;;;;;;;10.27;5.75;;;6.30;56.00;;;;;;4972122;28;20050;-85
2023/01/21 16:03:29;;;;;;;17.90;8.95;;;6.20;56.30;;;;;;4951479;28;20409;-90
2023/01/21 16:06:30;;;;;;;13.25;8.35;;;6.20;56.20;;;;;;4961808;28;20035;-85
2023/01/21 16:09:06;;;;;;;20.65;10.02;;;6.20;56.50;;;;;;4961658;28;20050;-89
2023/01/21 16:11:44;;;;;;;10.35;7.20;;;6.10;56.60;;;;;;4945167;28;20035;-89
2023/01/21 16:14:28;;;;;;;11.25;7.60;;;6.10;56.60;;;;;;4961690;28;20031;-80
2023/01/21 16:17:35;;;;;;;11.82;8.20;;;6.00;57.50;;;;;;4978484;28;20027;-90
2023/01/21 16:20:03;;;;;;;11.00;6.25;;;5.90;58.10;;;;;;4868098;29;20037;-89
2023/01/21 16:22:34;;;;;;;12.30;8.40;;;5.90;58.50;;;;;;4883593;29;20025;-89
2023/01/21 16:25:04;;;;;;;12.90;8.18;;;5.90;58.70;;;;;;4913856;29;20039;-89
2023/01/21 16:27:31;;;;;;;17.52;10.98;;;5.80;58.70;;;;;;4943948;29;20030;-89
2023/01/21 16:29:58;;;;;;;13.02;8.50;;;5.70;58.80;;;;;;4961295;29;20039;-90
2023/01/21 16:32:25;;;;;;;15.27;8.68;;;5.70;59.20;;;;;;4960774;29;20105;-91
2023/01/21 16:34:51;;;;;;;11.13;6.45;;;5.60;58.90;;;;;;4960897;28;20056;-89
2023/01/21 16:37:19;;;;;;;13.70;7.43;;;5.60;59.70;;;;;;4969828;28;20023;-88
2023/01/21 16:39:46;;;;;;;8.63;5.40;;;5.50;59.70;;;;;;4975713;28;20035;-87
2023/01/21 16:42:27;;;;;;;18.02;9.90;;;5.50;59.60;;;;;;4944837;28;20054;-86
2023/01/21 16:44:53;;;;;;;16.50;9.52;;;5.40;60.20;;;;;;4953349;28;20042;-87
2023/01/21 16:47:23;;;;;;;13.98;8.88;;;5.40;59.30;;;;;;4968668;28;20038;-88
2023/01/21 16:49:49;;;;;;;22.40;13.88;;;5.30;60.00;;;;;;4950290;28;20552;-88
2023/01/21 16:52:23;;;;;;;11.80;6.88;;;5.30;60.00;;;;;;4967888;28;20015;-88
2023/01/21 16:54:51;;;;;;;8.98;4.97;;;5.20;59.90;;;;;;4953465;28;20024;-88
2023/01/21 16:57:18;;;;;;;16.40;10.23;;;5.20;60.30;;;;;;4965490;28;20047;-86
2023/01/21 16:59:47;;;;;;;20.73;16.77;;;5.10;60.40;;;;;;4941211;29;20046;-81
2023/01/21 17:02:27;;;;;;;16.38;13.57;;;5.10;60.90;;;;;;4961053;28;20106;-84
2023/01/21 17:04:57;;;;;;;12.27;8.77;;;5.10;60.60;;;;;;4951111;28;20378;-83
2023/01/21 17:07:45;;;;;;;8.93;5.70;;;5.00;61.90;;;;;;4951096;28;20114;-83
2023/01/21 17:10:13;;;;;;;8.40;7.38;;;4.90;62.00;;;;;;4958506;28;20095;-79
2023/01/21 17:12:39;;;;;;;7.47;6.50;;;4.80;61.40;;;;;;4952252;28;20041;-85
2023/01/21 17:15:24;;;;;;;11.40;7.32;;;4.80;61.30;;;;;;4952149;29;20026;-86
2023/01/21 17:17:55;;;;;;;9.10;6.60;;;4.70;61.40;;;;;;4959111;28;20023;-83
2023/01/21 17:20:30;;;;;;;13.35;7.82;;;4.70;62.10;;;;;;4942410;29;20035;-77
2023/01/21 17:23:14;;;;;;;8.38;7.07;;;4.60;62.00;;;;;;4941333;29;20034;-82
2023/01/21 17:25:40;;;;;;;11.63;6.65;;;4.60;61.80;;;;;;4959788;28;20126;-81
2023/01/21 17:28:30;;;;;;;8.73;6.80;;;4.50;61.50;;;;;;4949245;29;20118;-79
2023/01/21 17:31:08;;;;;;;7.32;5.65;;;4.60;61.60;;;;;;4940769;29;20070;-78
2023/01/21 17:33:34;;;;;;;9.25;6.50;;;4.50;62.20;;;;;;4958352;28;20027;-84
2023/01/21 17:36:12;;;;;;;9.05;7.18;;;4.50;62.20;;;;;;4968298;28;20090;-78
2023/01/21 17:38:46;;;;;;;11.27;7.57;;;4.50;62.30;;;;;;4946646;28;20051;-79
2023/01/21 17:41:25;;;;;;;14.68;9.02;;;4.50;61.50;;;;;;4962121;28;20027;-79
2023/01/21 17:43:54;;;;;;;10.57;9.10;;;4.40;62.30;;;;;;4963745;28;20038;-82
2023/01/21 17:46:23;;;;;;;9.77;5.93;;;4.40;62.50;;;;;;4949935;28;20125;-85
2023/01/21 17:49:04;;;;;;;17.13;10.30;;;4.40;62.00;;;;;;4947495;28;20033;-87
2023/01/21 17:51:30;;;;;;;11.52;8.10;;;4.30;61.80;;;;;;4966180;28;20384;-79
2023/01/21 17:54:02;;;;;;;16.60;8.57;;;4.20;62.20;;;;;;4965215;28;20031;-86
2023/01/21 17:56:47;;;;;;;16.17;10.07;;;4.20;62.50;;;;;;4952465;28;20481;-82
2023/01/21 17:59:30;;;;;;;15.30;8.93;;;4.10;63.40;;;;;;4948741;28;20393;-82
2023/01/21 18:01:56;;;;;;;11.50;7.57;;;4.00;63.90;;;;;;4966330;28;20101;-87
2023/01/21 18:04:22;;;;;;;13.52;6.57;;;3.90;64.60;;;;;;4966253;28;20046;-79
2023/01/21 18:06:49;;;;;;;13.68;6.50;;;3.90;63.80;;;;;;4965938;28;20031;-80
2023/01/21 18:09:18;;;;;;;11.85;8.05;;;3.90;63.50;;;;;;4941571;28;20027;-75
2023/01/21 18:11:45;;;;;;;14.82;9.25;;;3.90;63.60;;;;;;4942472;28;20031;-80
2023/01/21 18:14:22;;;;;;;14.70;9.20;;;3.80;63.50;;;;;;4961338;28;20026;-75
2023/01/21 18:16:48;;;;;;;14.93;10.27;;;3.80;64.00;;;;;;4967780;28;20069;-78
2023/01/21 18:19:25;;;;;;;17.05;10.18;;;3.80;64.10;;;;;;4947135;28;20040;-79
2023/01/21 18:22:02;;;;;;;14.18;9.85;;;3.70;64.00;;;;;;4958826;28;20027;-79
2023/01/21 18:24:28;;;;;;;10.20;8.40;;;3.70;64.20;;;;;;4974186;28;20026;-80
2023/01/21 18:26:56;;;;;;;14.52;10.10;;;3.70;64.60;;;;;;4945416;28;20035;-79
2023/01/21 18:29:25;;;;;;;14.70;9.70;;;3.70;64.70;;;;;;4952846;28;20030;-77
2023/01/21 18:31:51;;;;;;;13.52;9.48;;;3.60;65.00;;;;;;4970244;28;20051;-79
2023/01/21 18:34:17;;;;;;;18.35;9.70;;;3.60;65.10;;;;;;4946110;29;20035;-78
2023/01/21 18:36:43;;;;;;;21.17;14.50;;;3.60;65.20;;;;;;4942163;29;20086;-80
2023/01/21 18:39:19;;;;;;;15.68;12.75;;;3.60;65.10;;;;;;4956278;28;20560;-81
2023/01/21 18:41:45;;;;;;;19.55;15.07;;;3.50;65.60;;;;;;4959646;28;20042;-84
2023/01/21 18:44:11;;;;;;;14.65;11.55;;;3.50;65.50;;;;;;4959444;28;20023;-87
2023/01/21 18:46:42;;;;;;;27.45;16.50;;;3.50;65.50;;;;;;4959933;28;20453;-83
2023/01/21 18:49:16;;;;;;;34.30;21.90;;;3.50;65.70;;;;;;4965442;28;20561;-87
2023/01/21 18:51:45;;;;;;;30.55;18.40;;;3.50;66.00;;;;;;4958048;29;20027;-88
2023/01/21 18:54:12;;;;;;;19.02;13.10;;;3.50;66.10;;;;;;4968253;28;20035;-81
2023/01/21 18:56:39;;;;;;;15.00;8.88;;;3.40;66.40;;;;;;4946726;29;20757;-83
2023/01/21 18:59:16;;;;;;;10.48;7.55;;;3.30;67.10;;;;;;4956287;28;20090;-81
2023/01/21 19:01:43;;;;;;;13.90;7.55;;;3.30;67.10;;;;;;4941351;29;20027;-81